createdAt,value
2017-12-02T00:02:04.551Z,19.48
2017-12-02T00:04:32.028Z,20.45
2017-12-02T00:06:59.600Z,18.25
2017-12-02T00:09:28.586Z,18.12
2017-12-02T00:11:56.411Z,17.25
2017-12-02T00:14:23.889Z,19.10
2017-12-02T00:16:51.359Z,18.58
2017-12-02T00:19:18.839Z,21.85
2017-12-02T00:21:46.324Z,20.27
2017-12-02T00:24:13.787Z,19.83
2017-12-02T00:26:41.291Z,21.65
2017-12-02T00:29:08.779Z,13.98
2017-12-02T00:31:36.328Z,18.87
2017-12-02T00:34:03.793Z,19.35
2017-12-02T00:36:33.875Z,21.08
2017-12-02T00:39:03.930Z,17.20
2017-12-02T00:41:32.242Z,10.30
2017-12-02T00:44:03.832Z,21.48
2017-12-02T00:46:31.619Z,22.15
2017-12-02T00:49:01.156Z,20.27
2017-12-02T00:51:29.887Z,22.25
2017-12-02T00:53:57.359Z,21.52
2017-12-02T00:56:25.569Z,22.85
2017-12-02T00:58:53.111Z,21.65
2017-12-02T01:01:21.044Z,22.15
2017-12-02T01:03:50.242Z,22.75
2017-12-02T01:06:18.739Z,21.73
2017-12-02T01:08:46.204Z,21.62
2017-12-02T01:11:13.791Z,22.33
2017-12-02T01:13:42.103Z,22.17
2017-12-02T01:16:09.831Z,22.10
2017-12-02T01:18:38.063Z,19.30
2017-12-02T01:21:05.535Z,21.20
2017-12-02T01:23:33.019Z,21.52
2017-12-02T01:26:01.247Z,22.33
2017-12-02T01:28:28.831Z,24.05
2017-12-02T01:30:56.295Z,22.17
2017-12-02T01:33:23.767Z,22.35
2017-12-02T01:35:51.999Z,13.07
2017-12-02T01:38:19.588Z,16.33
2017-12-02T01:40:47.060Z,21.65
2017-12-02T01:43:15.311Z,23.67
2017-12-02T01:45:42.792Z,22.85
2017-12-02T01:48:11.029Z,20.92
2017-12-02T01:50:38.492Z,23.65
2017-12-02T01:53:05.967Z,21.48
2017-12-02T01:55:33.444Z,21.37
2017-12-02T01:58:01.685Z,19.15
2017-12-02T02:00:29.168Z,21.05
2017-12-02T02:02:56.652Z,19.20
2017-12-02T02:05:24.179Z,21.40
2017-12-02T02:07:51.646Z,21.20
2017-12-02T02:10:19.902Z,12.13
2017-12-02T02:12:47.359Z,21.65
2017-12-02T02:15:14.832Z,17.58
2017-12-02T02:17:43.063Z,20.20
2017-12-02T02:20:10.559Z,20.92
2017-12-02T02:22:38.023Z,15.80
2017-12-02T02:25:06.264Z,20.20
2017-12-02T02:27:33.730Z,15.57
2017-12-02T02:30:01.196Z,19.62
2017-12-02T02:32:28.659Z,21.27
2017-12-02T02:34:56.151Z,17.20
2017-12-02T02:37:23.625Z,22.35
2017-12-02T02:39:51.092Z,24.35
2017-12-02T02:42:18.566Z,23.48
2017-12-02T02:44:46.028Z,22.30
2017-12-02T02:47:13.503Z,22.80
2017-12-02T02:49:40.980Z,19.45
2017-12-02T02:52:09.219Z,20.40
2017-12-02T02:54:36.685Z,21.10
2017-12-02T02:57:04.175Z,17.98
2017-12-02T02:59:32.427Z,21.58
2017-12-02T03:01:59.892Z,21.12
2017-12-02T03:04:27.367Z,19.80
2017-12-02T03:06:55.595Z,19.23
2017-12-02T03:09:23.070Z,19.42
2017-12-02T03:11:50.563Z,19.02
2017-12-02T03:14:18.064Z,19.10
2017-12-02T03:16:45.532Z,17.00
2017-12-02T03:19:13.000Z,16.75
2017-12-02T03:21:40.562Z,23.62
2017-12-02T03:24:08.028Z,20.75
2017-12-02T03:26:35.624Z,22.55
2017-12-02T03:29:03.139Z,19.08
2017-12-02T03:31:30.615Z,22.35
2017-12-02T03:33:58.856Z,24.63
2017-12-02T03:36:26.335Z,22.98
2017-12-02T03:38:53.891Z,23.48
2017-12-02T03:41:21.452Z,24.67
2017-12-02T03:43:48.924Z,23.98
2017-12-02T03:46:17.159Z,22.25
2017-12-02T03:48:44.653Z,22.95
2017-12-02T03:51:12.120Z,21.83
2017-12-02T03:53:40.432Z,21.95
2017-12-02T03:56:07.903Z,19.15
2017-12-02T03:58:35.376Z,16.55
2017-12-02T04:01:02.921Z,18.52
2017-12-02T04:03:30.383Z,19.65
2017-12-02T04:05:57.859Z,16.42
2017-12-02T04:08:25.331Z,16.92
2017-12-02T04:10:52.938Z,17.60
2017-12-02T04:13:20.443Z,16.92
2017-12-02T04:15:48.007Z,15.82
2017-12-02T04:18:15.484Z,14.48
2017-12-02T04:20:43.715Z,15.77
2017-12-02T04:23:11.196Z,18.25
2017-12-02T04:25:38.743Z,16.92
2017-12-02T04:28:06.223Z,19.52
2017-12-02T04:30:33.683Z,17.95
2017-12-02T04:33:01.939Z,16.70
2017-12-02T04:35:29.403Z,13.30
2017-12-02T04:37:56.963Z,17.70
2017-12-02T04:40:24.435Z,15.90
2017-12-02T04:42:52.675Z,12.55
2017-12-02T04:45:20.164Z,14.32
2017-12-02T04:47:47.636Z,13.68
2017-12-02T04:50:15.104Z,15.30
2017-12-02T04:52:42.577Z,15.23
2017-12-02T04:55:10.063Z,13.40
2017-12-02T04:57:37.526Z,15.07
2017-12-02T05:00:05.012Z,13.85
2017-12-02T05:02:32.503Z,17.35
2017-12-02T05:04:59.967Z,17.60
2017-12-02T05:07:27.587Z,17.77
2017-12-02T05:09:55.039Z,17.25
2017-12-02T05:12:22.549Z,17.60
2017-12-02T05:14:50.019Z,16.33
2017-12-02T05:17:17.487Z,14.43
2017-12-02T05:19:45.012Z,16.23
2017-12-02T05:22:12.431Z,17.08
2017-12-02T05:24:40.679Z,17.20
2017-12-02T05:27:08.160Z,16.40
2017-12-02T05:29:35.711Z,16.10
2017-12-02T05:32:03.223Z,16.87
2017-12-02T05:34:30.680Z,16.85
2017-12-02T05:36:58.152Z,16.90
2017-12-02T05:39:25.620Z,16.15
2017-12-02T05:41:53.094Z,17.90
2017-12-02T05:44:20.557Z,17.33
2017-12-02T05:46:48.039Z,17.17
2017-12-02T05:49:16.271Z,17.37
2017-12-02T05:51:43.739Z,15.88
2017-12-02T05:54:11.227Z,18.10
2017-12-02T05:56:39.490Z,16.33
2017-12-02T05:59:06.955Z,15.52
2017-12-02T06:01:35.215Z,16.90
2017-12-02T06:04:02.712Z,17.33
2017-12-02T06:06:30.188Z,17.40
2017-12-02T06:08:57.653Z,18.75
2017-12-02T06:11:25.127Z,14.40
2017-12-02T06:13:52.590Z,14.43
2017-12-02T06:16:20.067Z,17.52
2017-12-02T06:18:47.619Z,17.70
2017-12-02T06:21:15.098Z,16.50
2017-12-02T06:23:43.411Z,18.87
2017-12-02T06:26:10.870Z,18.23
2017-12-02T06:28:38.379Z,18.15
2017-12-02T06:31:06.059Z,17.37
2017-12-02T06:33:34.355Z,19.42
2017-12-02T06:36:04.413Z,18.12
2017-12-02T06:38:31.884Z,17.92
2017-12-02T06:40:59.351Z,17.67
2017-12-02T06:43:26.835Z,17.00
2017-12-02T06:45:55.060Z,17.98
2017-12-02T06:48:22.581Z,18.12
2017-12-02T06:50:50.071Z,17.55
2017-12-02T06:53:17.538Z,17.92
2017-12-02T06:55:45.010Z,17.62
2017-12-02T06:58:12.485Z,18.40
2017-12-02T07:00:40.012Z,18.10
2017-12-02T07:03:07.506Z,15.00
2017-12-02T07:05:36.042Z,18.17
2017-12-02T07:08:04.322Z,15.38
2017-12-02T07:10:32.372Z,12.27
2017-12-02T07:13:00.304Z,15.55
2017-12-02T07:15:28.540Z,17.48
2017-12-02T07:17:56.019Z,19.02
2017-12-02T07:20:23.579Z,17.17
2017-12-02T07:22:51.042Z,17.23
2017-12-02T07:25:18.546Z,16.98
2017-12-02T07:27:46.051Z,15.77
2017-12-02T07:30:13.520Z,17.50
2017-12-02T07:32:40.979Z,17.95
2017-12-02T07:35:09.296Z,15.68
2017-12-02T07:37:36.755Z,18.02
2017-12-02T07:40:04.620Z,15.68
2017-12-02T07:42:32.088Z,18.27
2017-12-02T07:44:59.571Z,16.50
2017-12-02T07:47:27.046Z,18.75
2017-12-02T07:49:54.519Z,17.37
2017-12-02T07:52:22.755Z,20.17
2017-12-02T07:54:50.231Z,16.40
2017-12-02T07:57:17.700Z,17.30
2017-12-02T07:59:45.175Z,18.70
2017-12-02T08:02:13.407Z,17.65
2017-12-02T08:04:40.879Z,19.70
2017-12-02T08:07:08.493Z,19.00
2017-12-02T08:09:35.948Z,14.43
2017-12-02T08:12:03.510Z,16.25
2017-12-02T08:14:30.964Z,17.48
2017-12-02T08:16:58.465Z,19.52
2017-12-02T08:19:26.037Z,19.30
2017-12-02T08:21:53.508Z,20.10
2017-12-02T08:24:21.748Z,19.25
2017-12-02T08:26:49.211Z,18.73
2017-12-02T08:29:16.691Z,19.02
2017-12-02T08:31:44.153Z,18.20
2017-12-02T08:34:12.415Z,16.10
2017-12-02T08:36:39.891Z,11.38
2017-12-02T08:39:08.116Z,14.35
2017-12-02T08:41:35.587Z,20.23
2017-12-02T08:44:03.059Z,21.92
2017-12-02T08:46:30.548Z,20.05
2017-12-02T08:48:58.850Z,20.52
2017-12-02T08:51:26.321Z,19.92
2017-12-02T08:53:53.799Z,17.73
2017-12-02T08:56:21.315Z,19.25
2017-12-02T08:58:48.784Z,21.58
2017-12-02T09:01:16.248Z,19.85
2017-12-02T09:03:43.723Z,17.75
2017-12-02T09:06:11.192Z,19.42
2017-12-02T09:08:38.664Z,20.27
2017-12-02T09:11:06.131Z,21.75
2017-12-02T09:13:34.032Z,19.12
2017-12-02T09:16:01.571Z,18.50
2017-12-02T09:18:29.815Z,20.62
2017-12-02T09:20:57.279Z,18.25
2017-12-02T09:23:24.847Z,20.73
2017-12-02T09:25:52.316Z,18.70
2017-12-02T09:28:20.558Z,16.70
2017-12-02T09:30:48.118Z,16.12
2017-12-02T09:33:15.575Z,16.85
2017-12-02T09:35:43.048Z,15.27
2017-12-02T09:38:10.521Z,11.75
2017-12-02T09:40:38.808Z,17.30
2017-12-02T09:43:07.031Z,16.85
2017-12-02T09:45:34.495Z,18.83
2017-12-02T09:48:01.964Z,16.52
2017-12-02T09:50:29.478Z,19.75
2017-12-02T09:52:57.137Z,18.90
2017-12-02T09:55:25.442Z,17.95
2017-12-02T09:57:52.907Z,20.23
2017-12-02T10:00:20.381Z,15.52
2017-12-02T10:02:47.915Z,17.20
2017-12-02T10:05:15.388Z,17.02
2017-12-02T10:07:42.849Z,17.45
2017-12-02T10:10:10.312Z,15.45
2017-12-02T10:12:37.786Z,20.33
2017-12-02T10:15:06.025Z,13.50
2017-12-02T10:17:33.503Z,19.67
2017-12-02T10:20:01.227Z,12.02
2017-12-02T10:22:28.919Z,14.48
2017-12-02T10:24:56.399Z,15.30
2017-12-02T10:27:23.854Z,9.65
2017-12-02T10:29:51.327Z,12.82
2017-12-02T10:32:19.563Z,13.75
2017-12-02T10:34:47.027Z,12.48
2017-12-02T10:37:14.498Z,12.88
2017-12-02T10:39:41.959Z,11.05
2017-12-02T10:42:09.433Z,12.85
2017-12-02T10:44:37.660Z,12.95
2017-12-02T10:47:05.146Z,14.07
2017-12-02T10:49:33.375Z,13.32
2017-12-02T10:52:00.843Z,10.57
2017-12-02T10:54:28.333Z,11.57
2017-12-02T10:56:56.604Z,11.02
2017-12-02T10:59:24.079Z,11.45
2017-12-02T11:01:51.532Z,11.95
2017-12-02T11:04:18.999Z,13.10
2017-12-02T11:06:46.463Z,13.30
2017-12-02T11:09:13.926Z,12.70
2017-12-02T11:11:42.155Z,12.57
2017-12-02T11:14:09.628Z,12.73
2017-12-02T11:16:37.079Z,13.15
2017-12-02T11:19:04.564Z,13.00
2017-12-02T11:21:32.124Z,11.35
2017-12-02T11:23:59.614Z,12.40
2017-12-02T11:26:27.133Z,12.30
2017-12-02T11:28:54.591Z,11.25
2017-12-02T11:31:22.173Z,12.15
2017-12-02T11:33:49.623Z,12.73
2017-12-02T11:36:17.864Z,12.65
2017-12-02T11:38:45.322Z,12.65
2017-12-02T11:41:12.819Z,12.27
2017-12-02T11:43:40.275Z,12.55
2017-12-02T11:46:07.747Z,10.40
2017-12-02T11:48:36.000Z,13.45
2017-12-02T11:51:03.463Z,8.80
2017-12-02T11:53:31.015Z,10.57
2017-12-02T11:55:58.487Z,13.95
2017-12-02T11:58:25.971Z,11.73
2017-12-02T12:00:54.196Z,9.35
2017-12-02T12:03:21.766Z,12.68
2017-12-02T12:05:49.227Z,13.75
2017-12-02T12:08:17.499Z,10.20
2017-12-02T12:10:44.943Z,7.25
2017-12-02T12:13:12.404Z,11.85
2017-12-02T12:15:39.876Z,13.13
2017-12-02T12:18:07.360Z,10.02
2017-12-02T12:20:35.597Z,11.40
2017-12-02T12:23:03.071Z,10.52
2017-12-02T12:25:30.540Z,12.68
2017-12-02T12:27:58.013Z,14.27
2017-12-02T12:30:25.483Z,15.68
2017-12-02T12:32:52.939Z,14.43
2017-12-02T12:35:21.167Z,14.50
2017-12-02T12:37:48.639Z,9.05
2017-12-02T12:40:16.115Z,13.20
2017-12-02T12:42:44.359Z,12.23
2017-12-02T12:45:11.827Z,11.55
2017-12-02T12:50:30.739Z,11.27
2017-12-02T12:52:58.994Z,12.05
2017-12-02T12:55:26.460Z,12.52
2017-12-02T12:57:53.932Z,12.85
2017-12-02T13:00:22.172Z,15.25
2017-12-02T13:02:49.631Z,11.82
2017-12-02T13:05:17.091Z,11.80
2017-12-02T13:07:44.562Z,12.52
2017-12-02T13:10:12.119Z,11.30
2017-12-02T13:12:39.584Z,10.73
2017-12-02T13:15:07.042Z,10.75
2017-12-02T13:17:34.516Z,7.40
2017-12-02T13:20:02.731Z,9.35
2017-12-02T13:22:30.222Z,7.80
2017-12-02T13:24:57.734Z,8.40
2017-12-02T13:27:25.256Z,9.27
2017-12-02T13:29:52.724Z,8.48
2017-12-02T13:32:20.936Z,9.45
2017-12-02T13:34:48.405Z,8.70
2017-12-02T13:37:15.859Z,10.27
2017-12-02T13:39:43.323Z,8.82
2017-12-02T13:42:10.799Z,10.43
2017-12-02T13:44:38.283Z,9.60
2017-12-02T13:47:05.744Z,9.27
2017-12-02T13:49:34.044Z,9.23
2017-12-02T13:52:01.513Z,8.30
2017-12-02T13:54:28.983Z,10.00
2017-12-02T13:56:56.445Z,8.07
2017-12-02T13:59:23.959Z,6.80
2017-12-02T14:01:52.239Z,8.35
2017-12-02T14:04:20.454Z,8.48
2017-12-02T14:06:47.919Z,9.15
2017-12-02T14:09:15.376Z,9.02
2017-12-02T14:11:42.860Z,9.65
2017-12-02T14:14:10.347Z,8.40
2017-12-02T14:16:38.579Z,8.02
2017-12-02T14:19:06.051Z,8.18
2017-12-02T14:21:33.515Z,8.00
2017-12-02T14:24:01.079Z,7.45
2017-12-02T14:26:28.555Z,7.30
2017-12-02T14:28:56.831Z,8.73
2017-12-02T14:31:25.056Z,7.72
2017-12-02T14:33:52.527Z,6.07
2017-12-02T14:36:20.026Z,10.10
2017-12-02T14:38:48.286Z,8.18
2017-12-02T14:41:15.793Z,6.20
2017-12-02T14:43:43.268Z,6.93
2017-12-02T14:46:10.722Z,8.93
2017-12-02T14:48:38.199Z,9.68
2017-12-02T14:51:05.659Z,9.40
2017-12-02T14:53:33.119Z,8.38
2017-12-02T14:56:00.586Z,10.25
2017-12-02T14:58:28.083Z,9.65
2017-12-02T15:00:55.556Z,8.07
2017-12-02T15:03:23.019Z,7.87
2017-12-02T15:05:50.546Z,9.48
2017-12-02T15:08:18.775Z,10.48
2017-12-02T15:10:46.243Z,9.93
2017-12-02T15:13:13.711Z,11.52
2017-12-02T15:15:41.181Z,8.50
2017-12-02T15:18:08.651Z,7.05
2017-12-02T15:20:37.003Z,8.50
2017-12-02T15:23:04.463Z,9.10
2017-12-02T15:25:31.919Z,9.52
2017-12-02T15:27:59.387Z,8.07
2017-12-02T15:30:26.853Z,7.70
2017-12-02T15:32:55.119Z,8.30
2017-12-02T15:35:22.571Z,8.65
2017-12-02T15:37:50.060Z,8.70
2017-12-02T15:40:17.519Z,9.13
2017-12-02T15:42:45.139Z,6.90
2017-12-02T15:45:12.595Z,6.50
2017-12-02T15:47:40.073Z,8.75
2017-12-02T15:50:08.301Z,6.87
2017-12-02T15:52:35.775Z,8.65
2017-12-02T15:55:03.253Z,10.00
2017-12-02T15:57:30.997Z,10.10
2017-12-02T15:59:58.470Z,10.60
2017-12-02T16:02:25.939Z,10.90
2017-12-02T16:04:53.403Z,11.88
2017-12-02T16:07:21.640Z,11.05
2017-12-02T16:09:49.119Z,10.43
2017-12-02T16:12:16.599Z,10.75
2017-12-02T16:14:44.855Z,11.12
2017-12-02T16:17:12.315Z,11.95
2017-12-02T16:19:39.791Z,12.40
2017-12-02T16:22:08.031Z,12.70
2017-12-02T16:24:35.493Z,10.90
2017-12-02T16:27:03.067Z,13.00
2017-12-02T16:29:30.539Z,12.18
2017-12-02T16:31:58.770Z,12.00
2017-12-02T16:34:26.252Z,11.48
2017-12-02T16:36:53.807Z,10.60
2017-12-02T16:39:21.275Z,5.18
2017-12-02T16:41:48.773Z,8.70
2017-12-02T16:44:16.237Z,8.90
2017-12-02T16:46:43.699Z,9.10
2017-12-02T16:49:11.203Z,7.43
2017-12-02T16:51:38.764Z,9.50
2017-12-02T16:54:06.227Z,6.82
2017-12-02T16:56:33.700Z,9.35
2017-12-02T16:59:02.595Z,9.20
2017-12-02T17:01:30.839Z,6.70
2017-12-02T17:03:58.306Z,7.85
2017-12-02T17:06:25.770Z,9.27
2017-12-02T17:08:53.232Z,8.13
2017-12-02T17:11:21.467Z,11.57
2017-12-02T17:13:48.928Z,8.13
2017-12-02T17:16:16.400Z,9.45
2017-12-02T17:18:43.913Z,10.60
2017-12-02T17:21:11.374Z,10.70
2017-12-02T17:23:38.875Z,10.38
2017-12-02T17:26:06.452Z,10.90
2017-12-02T17:28:34.695Z,11.02
2017-12-02T17:31:02.171Z,10.80
2017-12-02T17:33:29.644Z,9.68
2017-12-02T17:35:57.880Z,9.80
2017-12-02T17:38:25.350Z,9.85
2017-12-02T17:40:52.867Z,11.15
2017-12-02T17:43:20.375Z,11.85
2017-12-02T17:45:47.805Z,9.18
2017-12-02T17:48:15.274Z,7.87
2017-12-02T17:50:42.743Z,10.50
2017-12-02T17:53:10.212Z,7.12
2017-12-02T17:55:37.682Z,12.80
2017-12-02T17:58:05.147Z,9.57
2017-12-02T18:00:33.379Z,9.93
2017-12-02T18:03:00.873Z,10.25
2017-12-02T18:05:29.099Z,9.95
2017-12-02T18:07:56.566Z,10.60
2017-12-02T18:10:24.032Z,10.18
2017-12-02T18:12:51.503Z,11.50
2017-12-02T18:15:18.983Z,10.23
2017-12-02T18:17:46.472Z,10.85
2017-12-02T18:20:13.975Z,9.10
2017-12-02T18:22:41.459Z,9.55
2017-12-02T18:25:09.695Z,11.20
2017-12-02T18:27:37.161Z,11.10
2017-12-02T18:30:04.630Z,9.13
2017-12-02T18:32:32.105Z,11.07
2017-12-02T18:35:00.352Z,11.95
2017-12-02T18:37:27.811Z,12.05
2017-12-02T18:39:55.308Z,11.30
2017-12-02T18:42:23.534Z,12.35
2017-12-02T18:44:51.108Z,11.30
2017-12-02T18:47:18.568Z,9.98
2017-12-02T18:49:46.039Z,12.25
2017-12-02T18:52:13.502Z,11.80
2017-12-02T18:54:41.735Z,12.07
2017-12-02T18:57:09.215Z,11.43
2017-12-02T18:59:36.683Z,11.85
2017-12-02T19:02:04.158Z,12.20
2017-12-02T19:04:32.395Z,11.30
2017-12-02T19:06:59.868Z,11.95
2017-12-02T19:09:27.332Z,10.57
2017-12-02T19:11:54.836Z,11.35
2017-12-02T19:14:22.305Z,10.95
2017-12-02T19:16:49.770Z,13.10
2017-12-02T19:19:17.239Z,12.00
2017-12-02T19:21:44.727Z,12.50
2017-12-02T19:24:12.967Z,12.15
2017-12-02T19:26:40.451Z,13.55
2017-12-02T19:29:08.727Z,13.40
2017-12-02T19:31:36.274Z,12.55
2017-12-02T19:34:03.775Z,11.07
2017-12-02T19:36:32.022Z,12.88
2017-12-02T19:38:59.580Z,13.85
2017-12-02T19:41:27.056Z,11.70
2017-12-02T19:43:55.312Z,12.98
2017-12-02T19:46:22.797Z,12.95
2017-12-02T19:48:51.028Z,11.40
2017-12-02T19:51:18.507Z,13.20
2017-12-02T19:53:45.968Z,12.52
2017-12-02T19:56:13.516Z,14.10
2017-12-02T19:58:40.979Z,14.30
2017-12-02T20:01:08.456Z,15.30
2017-12-02T20:03:36.687Z,15.18
2017-12-02T20:06:04.164Z,14.75
2017-12-02T20:08:31.635Z,14.23
2017-12-02T20:10:59.123Z,12.85
2017-12-02T20:13:26.589Z,13.95
2017-12-02T20:15:54.094Z,15.25
2017-12-02T20:18:21.559Z,11.45
2017-12-02T20:20:49.023Z,13.95
2017-12-02T20:23:16.499Z,11.80
2017-12-02T20:25:44.777Z,15.13
2017-12-02T20:28:13.014Z,11.90
2017-12-02T20:30:40.476Z,13.25
2017-12-02T20:33:08.043Z,13.38
2017-12-02T20:35:35.595Z,14.38
2017-12-02T20:38:03.080Z,11.90
2017-12-02T20:40:30.604Z,14.50
2017-12-02T20:42:58.121Z,12.90
2017-12-02T20:45:26.338Z,12.23
2017-12-02T20:47:53.836Z,15.57
2017-12-02T20:50:21.307Z,13.43
2017-12-02T20:52:49.554Z,14.30
2017-12-02T20:55:17.024Z,10.13
2017-12-02T20:57:44.496Z,11.00
2017-12-02T21:00:12.723Z,8.52
2017-12-02T21:02:40.185Z,8.45
2017-12-02T21:05:07.668Z,9.25
2017-12-02T21:07:35.159Z,9.77
2017-12-02T21:10:02.636Z,11.02
2017-12-02T21:12:30.133Z,9.75
2017-12-02T21:14:57.599Z,9.70
2017-12-02T21:17:25.064Z,8.88
2017-12-02T21:19:52.565Z,7.15
2017-12-02T21:22:20.092Z,8.75
2017-12-02T21:24:48.320Z,5.87
2017-12-02T21:27:15.795Z,9.20
2017-12-02T21:29:43.270Z,7.93
2017-12-02T21:32:10.764Z,9.80
2017-12-02T21:34:38.287Z,8.15
2017-12-02T21:37:05.764Z,7.20
2017-12-02T21:39:33.998Z,7.70
2017-12-02T21:42:01.472Z,7.45
2017-12-02T21:44:28.938Z,7.25
2017-12-02T21:46:56.562Z,7.50
2017-12-02T21:49:24.068Z,9.32
2017-12-02T21:51:51.531Z,9.15
2017-12-02T21:54:19.771Z,7.90
2017-12-02T21:56:47.418Z,8.77
2017-12-02T21:59:14.915Z,7.30
2017-12-02T22:01:42.395Z,9.57
2017-12-02T22:04:10.634Z,8.18
2017-12-02T22:06:38.110Z,8.10
2017-12-02T22:09:05.572Z,9.20
2017-12-02T22:11:33.035Z,9.00
2017-12-02T22:14:00.550Z,8.88
2017-12-02T22:16:28.016Z,9.20
2017-12-02T22:18:55.536Z,10.20
2017-12-02T22:21:23.784Z,7.60
2017-12-02T22:23:51.250Z,10.88
2017-12-02T22:26:19.490Z,8.23
2017-12-02T22:28:46.959Z,9.68
2017-12-02T22:31:14.427Z,9.55
2017-12-02T22:33:41.896Z,10.38
2017-12-02T22:36:09.387Z,9.68
2017-12-02T22:38:36.854Z,7.95
2017-12-02T22:41:04.319Z,7.93
2017-12-02T22:43:31.805Z,9.75
2017-12-02T22:45:59.275Z,9.18
2017-12-02T22:48:26.750Z,8.60
2017-12-02T22:50:54.216Z,8.90
2017-12-02T22:53:22.443Z,9.63
2017-12-02T22:55:49.919Z,7.95
2017-12-02T22:58:17.410Z,7.62
2017-12-02T23:00:45.778Z,7.25
2017-12-02T23:03:13.252Z,9.30
2017-12-02T23:05:41.518Z,8.18
2017-12-02T23:08:09.129Z,8.38
2017-12-02T23:10:37.591Z,6.65
2017-12-02T23:13:05.146Z,6.00
2017-12-02T23:15:32.600Z,7.70
2017-12-02T23:18:00.082Z,8.52
2017-12-02T23:20:28.149Z,7.40
2017-12-02T23:22:57.502Z,8.70
2017-12-02T23:25:25.347Z,7.75
2017-12-02T23:27:53.269Z,8.85
2017-12-02T23:33:14.381Z,8.52
2017-12-02T23:35:42.725Z,8.32
2017-12-02T23:38:10.991Z,7.32
2017-12-02T23:40:40.080Z,8.57
2017-12-02T23:43:07.572Z,6.85
2017-12-02T23:45:35.054Z,8.32
2017-12-02T23:48:03.283Z,7.70
2017-12-02T23:50:30.760Z,7.60
2017-12-02T23:52:58.236Z,8.95
2017-12-02T23:55:26.498Z,7.68
2017-12-02T23:57:53.948Z,9.25
